createdAt,value
2024-04-24T00:04:30.657Z,83.2
2024-04-24T00:14:38.087Z,83.2
2024-04-24T00:24:45.413Z,83.2
2024-04-24T00:34:52.695Z,83.03
2024-04-24T00:44:59.894Z,83.03
2024-04-24T00:55:06.519Z,83.03
2024-04-24T01:05:14.076Z,83.03
2024-04-24T01:15:21.263Z,83.03
2024-04-24T01:25:29.046Z,83.03
2024-04-24T01:35:35.560Z,83.03
2024-04-24T01:45:43.042Z,83.03
2024-04-24T01:55:50.555Z,83.03
2024-04-24T02:05:57.894Z,83.03
2024-04-24T02:16:04.442Z,83.03
2024-04-24T02:26:11.919Z,83.03
2024-04-24T02:36:19.198Z,82.87
2024-04-24T02:46:26.142Z,82.87
2024-04-24T02:56:33.363Z,82.87
2024-04-24T03:06:40.621Z,82.87
2024-04-24T03:16:48.407Z,82.87
2024-04-24T03:26:55.698Z,82.87
2024-04-24T03:37:02.943Z,82.87
2024-04-24T03:47:10.908Z,82.7
2024-04-24T03:57:18.086Z,82.7
2024-04-24T04:07:25.452Z,82.7
2024-04-24T04:17:33.437Z,82.7
2024-04-24T04:27:40.264Z,82.7
2024-04-24T04:37:48.040Z,82.7
2024-04-24T04:47:56.543Z,82.7
2024-04-24T04:58:03.691Z,82.7
2024-04-24T05:08:11.493Z,82.7
2024-04-24T05:18:26.281Z,82.7
2024-04-24T05:28:33.838Z,82.87
2024-04-24T05:38:41.196Z,82.87
2024-04-24T05:48:50.220Z,82.87
2024-04-24T05:58:57.903Z,82.87
2024-04-24T06:09:05.954Z,82.87
2024-04-24T06:19:13.193Z,82.87
2024-04-24T06:29:20.993Z,82.87
2024-04-24T06:39:28.049Z,83.03
2024-04-24T06:49:35.244Z,83.03
2024-04-24T06:59:42.341Z,83.03
2024-04-24T07:09:49.644Z,83.2
2024-04-24T07:19:56.419Z,83.2
2024-04-24T07:30:04.100Z,83.36
2024-04-24T07:40:11.645Z,83.36
2024-04-24T07:50:19.726Z,83.36
2024-04-24T08:00:26.915Z,83.52
2024-04-24T08:10:34.534Z,83.52
2024-04-24T08:20:41.909Z,83.52
2024-04-24T08:30:52.226Z,83.52
2024-04-24T08:40:59.606Z,83.52
2024-04-24T08:51:06.738Z,83.52
2024-04-24T09:01:14.673Z,83.68
2024-04-24T09:11:22.852Z,83.68
2024-04-24T09:21:30.347Z,83.68
2024-04-24T09:31:37.901Z,83.85
2024-04-24T09:41:44.930Z,83.85
2024-04-24T09:51:52.889Z,83.85
2024-04-24T10:02:00.605Z,84.01
2024-04-24T10:12:08.416Z,84.01
2024-04-24T10:22:15.519Z,84.01
2024-04-24T10:32:23.965Z,84.17
2024-04-24T10:42:31.215Z,84.34
2024-04-24T10:52:38.726Z,84.34
2024-04-24T11:02:45.653Z,84.34
2024-04-24T11:12:53.052Z,84.34
2024-04-24T11:23:00.299Z,84.48
2024-04-24T11:33:08.943Z,84.77
2024-04-24T11:43:17.110Z,85.34
2024-04-24T11:53:24.476Z,85.2
2024-04-24T12:03:31.450Z,85.2
2024-04-24T12:13:38.841Z,85.34
2024-04-24T12:23:48.260Z,86.49
2024-04-24T12:33:57.688Z,86.49
2024-04-24T12:44:05.239Z,86.49
2024-04-24T12:54:12.100Z,86.63
2024-04-24T13:04:21.918Z,87.64
2024-04-24T13:14:31.342Z,87.35
2024-04-24T13:24:37.187Z,87.06
2024-04-24T13:34:44.241Z,87.64
2024-04-24T13:44:55.293Z,88.8
2024-04-24T13:55:04.363Z,89.12
2024-04-24T14:05:10.332Z,88.8
2024-04-24T14:15:17.643Z,89.27
2024-04-24T14:25:26.088Z,90.22
2024-04-24T14:35:35.540Z,91.17
2024-04-24T14:45:43.853Z,91.8
2024-04-24T14:55:49.942Z,91.17
2024-04-24T15:05:53.898Z,90.54
2024-04-24T15:15:58.878Z,89.91
2024-04-24T15:26:05.796Z,89.43
2024-04-24T15:36:12.786Z,89.12
2024-04-24T15:46:19.870Z,89.12
2024-04-24T15:56:29.053Z,89.59
2024-04-24T16:06:37.170Z,89.75
2024-04-24T16:16:46.420Z,90.22
2024-04-24T16:26:52.554Z,90.07
2024-04-24T16:36:58.247Z,89.91
2024-04-24T16:47:05.298Z,89.59
2024-04-24T16:57:11.689Z,89.43
2024-04-24T17:07:18.479Z,89.12
2024-04-24T17:17:26.608Z,88.96
2024-04-24T17:27:33.049Z,88.96
2024-04-24T17:37:39.921Z,88.8
2024-04-24T17:47:47.649Z,88.64
2024-04-24T17:57:54.592Z,88.5
2024-04-24T18:08:02.024Z,88.5
2024-04-24T18:18:10.124Z,88.5
2024-04-24T18:28:17.183Z,88.36
2024-04-24T18:38:25.540Z,88.36
2024-04-24T18:48:33.267Z,88.36
2024-04-24T18:58:40.516Z,88.21
2024-04-24T19:08:47.603Z,88.21
2024-04-24T19:18:54.728Z,88.21
2024-04-24T19:29:01.788Z,88.21
2024-04-24T19:39:09.196Z,88.21
2024-04-24T19:49:16.439Z,88.07
2024-04-24T19:59:24.211Z,88.07
2024-04-24T20:09:31.625Z,88.07
2024-04-24T20:19:38.565Z,88.07
2024-04-24T20:29:46.038Z,87.93
2024-04-24T20:39:53.509Z,87.93
2024-04-24T20:50:01.207Z,87.93
2024-04-24T21:00:09.253Z,87.93
2024-04-24T21:10:15.929Z,87.78
2024-04-24T21:20:24.055Z,87.78
2024-04-24T21:30:30.505Z,87.78
2024-04-24T21:40:37.525Z,87.78
2024-04-24T21:50:45.154Z,87.78
2024-04-24T22:00:53.122Z,87.78
2024-04-24T22:11:00.681Z,87.64
2024-04-24T22:21:08.144Z,87.64
2024-04-24T22:31:15.346Z,87.64
2024-04-24T22:41:22.653Z,87.64
2024-04-24T22:51:29.601Z,87.64
2024-04-24T23:01:37.084Z,87.49
2024-04-24T23:11:44.861Z,87.49
2024-04-24T23:21:51.922Z,87.49
2024-04-24T23:31:59.391Z,87.49
2024-04-24T23:42:07.031Z,87.49
2024-04-24T23:52:14.054Z,87.49
